sensor_id;sensor_type;location;lat;lon;timestamp;pressure;altitude;pressure_sealevel;temperature;humidity
24762;BME280;12865;51.934;10.330;2022-08-26T00:02:36;99027.25;;;21.97;98.98
24762;BME280;12865;51.934;10.330;2022-08-26T00:05:22;99026.44;;;21.97;98.92
24762;BME280;12865;51.934;10.330;2022-08-26T00:08:09;99028.94;;;21.91;98.99
24762;BME280;12865;51.934;10.330;2022-08-26T00:10:55;99028.16;;;21.84;99.15
24762;BME280;12865;51.934;10.330;2022-08-26T00:13:41;99025.69;;;21.76;99.70
24762;BME280;12865;51.934;10.330;2022-08-26T00:16:28;99030.91;;;21.78;100.00
24762;BME280;12865;51.934;10.330;2022-08-26T00:19:17;99026.94;;;21.74;99.94
24762;BME280;12865;51.934;10.330;2022-08-26T00:22:03;99025.28;;;21.66;100.00
24762;BME280;12865;51.934;10.330;2022-08-26T00:24:49;99020.56;;;21.55;99.97
24762;BME280;12865;51.934;10.330;2022-08-26T00:27:35;99025.38;;;21.46;100.00
24762;BME280;12865;51.934;10.330;2022-08-26T00:30:24;99025.41;;;21.40;100.00
24762;BME280;12865;51.934;10.330;2022-08-26T00:33:10;99018.53;;;21.31;100.00
24762;BME280;12865;51.934;10.330;2022-08-26T00:35:56;99010.88;;;21.21;100.00
24762;BME280;12865;51.934;10.330;2022-08-26T00:38:42;99016.50;;;21.13;100.00
24762;BME280;12865;51.934;10.330;2022-08-26T00:41:28;99016.69;;;21.11;100.00
24762;BME280;12865;51.934;10.330;2022-08-26T00:44:15;99014.19;;;21.10;100.00
24762;BME280;12865;51.934;10.330;2022-08-26T00:47:03;99014.19;;;21.10;100.00
24762;BME280;12865;51.934;10.330;2022-08-26T00:49:52;99003.38;;;21.17;100.00
24762;BME280;12865;51.934;10.330;2022-08-26T00:52:38;99013.97;;;21.11;100.00
24762;BME280;12865;51.934;10.330;2022-08-26T00:55:37;99008.78;;;21.03;100.00
24762;BME280;12865;51.934;10.330;2022-08-26T00:58:27;99008.41;;;20.93;100.00
24762;BME280;12865;51.934;10.330;2022-08-26T01:01:14;99009.47;;;20.86;100.00
24762;BME280;12865;51.934;10.330;2022-08-26T01:04:01;99016.34;;;20.75;100.00
24762;BME280;12865;51.934;10.330;2022-08-26T01:06:50;99011.53;;;20.77;100.00
24762;BME280;12865;51.934;10.330;2022-08-26T01:09:36;99013.00;;;20.80;100.00
24762;BME280;12865;51.934;10.330;2022-08-26T01:12:24;99011.75;;;20.75;100.00
24762;BME280;12865;51.934;10.330;2022-08-26T01:15:15;99018.66;;;20.71;100.00
24762;BME280;12865;51.934;10.330;2022-08-26T01:18:03;99014.06;;;20.78;100.00
24762;BME280;12865;51.934;10.330;2022-08-26T01:20:52;99015.09;;;20.84;100.00
24762;BME280;12865;51.934;10.330;2022-08-26T01:23:44;99011.13;;;20.87;100.00
24762;BME280;12865;51.934;10.330;2022-08-26T01:26:36;99008.22;;;20.88;100.00
24762;BME280;12865;51.934;10.330;2022-08-26T01:29:27;99008.63;;;20.85;100.00
24762;BME280;12865;51.934;10.330;2022-08-26T01:32:17;98998.81;;;20.84;100.00
24762;BME280;12865;51.934;10.330;2022-08-26T01:35:05;99003.19;;;20.85;100.00
24762;BME280;12865;51.934;10.330;2022-08-26T01:37:53;99008.19;;;20.82;100.00
24762;BME280;12865;51.934;10.330;2022-08-26T01:40:40;99000.06;;;20.75;100.00
24762;BME280;12865;51.934;10.330;2022-08-26T01:43:28;99002.19;;;20.73;100.00
24762;BME280;12865;51.934;10.330;2022-08-26T01:46:16;99005.50;;;20.75;100.00
24762;BME280;12865;51.934;10.330;2022-08-26T01:49:05;99003.41;;;20.77;100.00
24762;BME280;12865;51.934;10.330;2022-08-26T01:51:54;99004.88;;;20.80;100.00
24762;BME280;12865;51.934;10.330;2022-08-26T01:54:40;99006.53;;;20.87;100.00
24762;BME280;12865;51.934;10.330;2022-08-26T01:57:27;99011.97;;;20.87;100.00
24762;BME280;12865;51.934;10.330;2022-08-26T02:00:14;99013.00;;;20.86;100.00
24762;BME280;12865;51.934;10.330;2022-08-26T02:03:00;99011.13;;;20.80;100.00
24762;BME280;12865;51.934;10.330;2022-08-26T02:06:06;99015.09;;;20.71;100.00
24762;BME280;12865;51.934;10.330;2022-08-26T02:08:55;99002.81;;;20.62;100.00
24762;BME280;12865;51.934;10.330;2022-08-26T02:11:42;99019.25;;;20.54;100.00
24762;BME280;12865;51.934;10.330;2022-08-26T02:14:32;99013.25;;;20.45;100.00
24762;BME280;12865;51.934;10.330;2022-08-26T02:17:21;99013.63;;;20.35;100.00
24762;BME280;12865;51.934;10.330;2022-08-26T02:20:12;99013.81;;;20.27;100.00
24762;BME280;12865;51.934;10.330;2022-08-26T02:22:58;99005.47;;;20.22;100.00
24762;BME280;12865;51.934;10.330;2022-08-26T02:25:53;99010.91;;;20.22;100.00
24762;BME280;12865;51.934;10.330;2022-08-26T02:28:53;99009.66;;;20.18;100.00
24762;BME280;12865;51.934;10.330;2022-08-26T02:31:41;99006.94;;;20.18;100.00
24762;BME280;12865;51.934;10.330;2022-08-26T02:34:30;99007.13;;;20.10;100.00
24762;BME280;12865;51.934;10.330;2022-08-26T02:37:19;99006.69;;;20.07;100.00
24762;BME280;12865;51.934;10.330;2022-08-26T02:40:06;99003.16;;;20.06;100.00
24762;BME280;12865;51.934;10.330;2022-08-26T02:42:53;98998.19;;;20.10;100.00
24762;BME280;12865;51.934;10.330;2022-08-26T02:48:10;99002.56;;;20.24;100.00
24762;BME280;12865;51.934;10.330;2022-08-26T02:50:58;99001.75;;;20.30;100.00
24762;BME280;12865;51.934;10.330;2022-08-26T02:53:45;99003.81;;;20.28;100.00
24762;BME280;12865;51.934;10.330;2022-08-26T02:56:34;98999.22;;;20.22;100.00
24762;BME280;12865;51.934;10.330;2022-08-26T02:59:20;98999.88;;;20.17;100.00
24762;BME280;12865;51.934;10.330;2022-08-26T03:02:06;98997.56;;;20.14;100.00
24762;BME280;12865;51.934;10.330;2022-08-26T03:04:53;98996.91;;;20.12;100.00
24762;BME280;12865;51.934;10.330;2022-08-26T03:07:38;98993.81;;;20.15;100.00
24762;BME280;12865;51.934;10.330;2022-08-26T03:10:24;98991.31;;;20.20;100.00
24762;BME280;12865;51.934;10.330;2022-08-26T03:13:10;98989.63;;;20.19;100.00
24762;BME280;12865;51.934;10.330;2022-08-26T03:15:55;98983.81;;;20.22;100.00
24762;BME280;12865;51.934;10.330;2022-08-26T03:18:41;98983.00;;;20.15;100.00
24762;BME280;12865;51.934;10.330;2022-08-26T03:21:27;98987.75;;;20.13;100.00
24762;BME280;12865;51.934;10.330;2022-08-26T03:24:14;98986.31;;;20.11;100.00
24762;BME280;12865;51.934;10.330;2022-08-26T03:27:02;98979.25;;;20.10;100.00
24762;BME280;12865;51.934;10.330;2022-08-26T03:29:47;98980.47;;;20.07;100.00
24762;BME280;12865;51.934;10.330;2022-08-26T03:32:52;98985.47;;;20.10;100.00
24762;BME280;12865;51.934;10.330;2022-08-26T03:35:39;98977.75;;;20.07;100.00
24762;BME280;12865;51.934;10.330;2022-08-26T03:38:25;98975.50;;;20.04;100.00
24762;BME280;12865;51.934;10.330;2022-08-26T03:41:11;98977.13;;;20.05;100.00
24762;BME280;12865;51.934;10.330;2022-08-26T03:43:56;98980.69;;;20.12;100.00
24762;BME280;12865;51.934;10.330;2022-08-26T03:46:42;98981.50;;;20.13;100.00
24762;BME280;12865;51.934;10.330;2022-08-26T03:49:30;98975.06;;;20.14;100.00
24762;BME280;12865;51.934;10.330;2022-08-26T03:52:16;98972.56;;;20.19;100.00
24762;BME280;12865;51.934;10.330;2022-08-26T03:55:04;98966.09;;;20.26;100.00
24762;BME280;12865;51.934;10.330;2022-08-26T03:57:50;98964.25;;;20.40;100.00
24762;BME280;12865;51.934;10.330;2022-08-26T04:00:36;98958.03;;;20.53;100.00
24762;BME280;12865;51.934;10.330;2022-08-26T04:03:23;98962.19;;;20.55;100.00
24762;BME280;12865;51.934;10.330;2022-08-26T04:06:41;98960.09;;;20.57;100.00
24762;BME280;12865;51.934;10.330;2022-08-26T04:09:29;98959.66;;;20.54;100.00
24762;BME280;12865;51.934;10.330;2022-08-26T04:12:15;98959.28;;;20.50;100.00
24762;BME280;12865;51.934;10.330;2022-08-26T04:15:00;98962.19;;;20.42;100.00
24762;BME280;12865;51.934;10.330;2022-08-26T04:17:46;98961.16;;;20.36;100.00
24762;BME280;12865;51.934;10.330;2022-08-26T04:20:32;98958.84;;;20.33;100.00
24762;BME280;12865;51.934;10.330;2022-08-26T04:23:18;98956.94;;;20.27;100.00
24762;BME280;12865;51.934;10.330;2022-08-26T04:26:04;98950.31;;;20.23;100.00
24762;BME280;12865;51.934;10.330;2022-08-26T04:28:51;98964.66;;;20.17;100.00
24762;BME280;12865;51.934;10.330;2022-08-26T04:31:37;98959.03;;;20.12;100.00
24762;BME280;12865;51.934;10.330;2022-08-26T04:34:26;98956.31;;;20.12;100.00
24762;BME280;12865;51.934;10.330;2022-08-26T04:37:11;98949.47;;;20.16;100.00
24762;BME280;12865;51.934;10.330;2022-08-26T04:39:57;98947.78;;;20.22;100.00
24762;BME280;12865;51.934;10.330;2022-08-26T04:42:43;98944.88;;;20.30;100.00
24762;BME280;12865;51.934;10.330;2022-08-26T04:45:29;98955.09;;;20.34;100.00
24762;BME280;12865;51.934;10.330;2022-08-26T04:48:14;98954.28;;;20.34;100.00
24762;BME280;12865;51.934;10.330;2022-08-26T04:51:00;98949.69;;;20.34;100.00
24762;BME280;12865;51.934;10.330;2022-08-26T04:53:46;98955.75;;;20.36;100.00
24762;BME280;12865;51.934;10.330;2022-08-26T04:56:35;98956.97;;;20.47;100.00
24762;BME280;12865;51.934;10.330;2022-08-26T04:59:21;98960.09;;;20.64;100.00
24762;BME280;12865;51.934;10.330;2022-08-26T05:02:07;98961.72;;;20.78;100.00
24762;BME280;12865;51.934;10.330;2022-08-26T05:04:53;98956.47;;;20.96;100.00
24762;BME280;12865;51.934;10.330;2022-08-26T05:07:39;98955.19;;;21.05;100.00
24762;BME280;12865;51.934;10.330;2022-08-26T05:10:25;98958.94;;;21.17;100.00
24762;BME280;12865;51.934;10.330;2022-08-26T05:13:16;98965.38;;;21.30;100.00
24762;BME280;12865;51.934;10.330;2022-08-26T05:16:06;98955.09;;;21.38;100.00
24762;BME280;12865;51.934;10.330;2022-08-26T05:18:52;98954.63;;;21.48;100.00
24762;BME280;12865;51.934;10.330;2022-08-26T05:21:39;98952.72;;;21.55;100.00
24762;BME280;12865;51.934;10.330;2022-08-26T05:24:26;98949.97;;;21.62;100.00
24762;BME280;12865;51.934;10.330;2022-08-26T05:27:13;98957.72;;;21.58;100.00
24762;BME280;12865;51.934;10.330;2022-08-26T05:29:59;98954.00;;;21.46;100.00
24762;BME280;12865;51.934;10.330;2022-08-26T05:32:47;98964.06;;;21.39;100.00
24762;BME280;12865;51.934;10.330;2022-08-26T05:35:34;98964.75;;;21.28;100.00
24762;BME280;12865;51.934;10.330;2022-08-26T05:38:20;98959.97;;;21.23;100.00
24762;BME280;12865;51.934;10.330;2022-08-26T05:41:36;98954.09;;;21.26;100.00
24762;BME280;12865;51.934;10.330;2022-08-26T05:44:22;98955.13;;;21.32;100.00
24762;BME280;12865;51.934;10.330;2022-08-26T05:47:08;98953.47;;;21.37;100.00
24762;BME280;12865;51.934;10.330;2022-08-26T05:49:54;98967.59;;;21.39;100.00
24762;BME280;12865;51.934;10.330;2022-08-26T05:52:40;98969.28;;;21.40;100.00
24762;BME280;12865;51.934;10.330;2022-08-26T05:55:26;98967.53;;;21.52;100.00
24762;BME280;12865;51.934;10.330;2022-08-26T05:58:12;98968.50;;;21.71;100.00
24762;BME280;12865;51.934;10.330;2022-08-26T06:01:03;98962.13;;;21.90;100.00
24762;BME280;12865;51.934;10.330;2022-08-26T06:03:51;98959.78;;;21.94;100.00
24762;BME280;12865;51.934;10.330;2022-08-26T06:06:37;98969.41;;;21.97;100.00
24762;BME280;12865;51.934;10.330;2022-08-26T06:09:25;98965.81;;;22.03;100.00
24762;BME280;12865;51.934;10.330;2022-08-26T06:12:11;98975.84;;;22.02;100.00
24762;BME280;12865;51.934;10.330;2022-08-26T06:14:57;98975.59;;;22.10;100.00
24762;BME280;12865;51.934;10.330;2022-08-26T06:17:43;98982.03;;;22.16;100.00
24762;BME280;12865;51.934;10.330;2022-08-26T06:20:30;98979.03;;;22.24;100.00
24762;BME280;12865;51.934;10.330;2022-08-26T06:23:17;98980.28;;;22.28;100.00
24762;BME280;12865;51.934;10.330;2022-08-26T06:26:21;98997.78;;;22.32;100.00
24762;BME280;12865;51.934;10.330;2022-08-26T06:29:07;98984.59;;;22.36;100.00
24762;BME280;12865;51.934;10.330;2022-08-26T06:31:54;98976.84;;;22.39;100.00
24762;BME280;12865;51.934;10.330;2022-08-26T06:34:40;98984.31;;;22.44;100.00
24762;BME280;12865;51.934;10.330;2022-08-26T06:37:26;98980.13;;;22.48;100.00
24762;BME280;12865;51.934;10.330;2022-08-26T06:40:12;98979.13;;;22.42;100.00
24762;BME280;12865;51.934;10.330;2022-08-26T06:42:57;98982.31;;;22.32;100.00
24762;BME280;12865;51.934;10.330;2022-08-26T06:45:43;98989.59;;;22.39;100.00
24762;BME280;12865;51.934;10.330;2022-08-26T06:48:30;98997.34;;;22.35;100.00
24762;BME280;12865;51.934;10.330;2022-08-26T06:51:19;99008.44;;;22.33;100.00
24762;BME280;12865;51.934;10.330;2022-08-26T06:54:06;99006.56;;;22.34;100.00
24762;BME280;12865;51.934;10.330;2022-08-26T06:56:52;99005.56;;;22.22;100.00
24762;BME280;12865;51.934;10.330;2022-08-26T06:59:38;99013.81;;;22.09;100.00
24762;BME280;12865;51.934;10.330;2022-08-26T07:02:23;99011.97;;;22.03;100.00
24762;BME280;12865;51.934;10.330;2022-08-26T07:05:09;99013.28;;;21.93;100.00
24762;BME280;12865;51.934;10.330;2022-08-26T07:07:55;99017.88;;;21.93;100.00
24762;BME280;12865;51.934;10.330;2022-08-26T07:10:42;99027.28;;;21.90;100.00
24762;BME280;12865;51.934;10.330;2022-08-26T07:13:28;99034.75;;;21.95;100.00
24762;BME280;12865;51.934;10.330;2022-08-26T07:16:15;99023.66;;;21.65;100.00
24762;BME280;12865;51.934;10.330;2022-08-26T07:19:02;99028.63;;;21.68;100.00
24762;BME280;12865;51.934;10.330;2022-08-26T07:21:48;99026.56;;;21.64;100.00
24762;BME280;12865;51.934;10.330;2022-08-26T07:24:36;99019.25;;;21.71;100.00
24762;BME280;12865;51.934;10.330;2022-08-26T07:27:23;99013.97;;;21.76;100.00
24762;BME280;12865;51.934;10.330;2022-08-26T07:30:09;99007.25;;;21.85;100.00
24762;BME280;12865;51.934;10.330;2022-08-26T07:32:56;99016.00;;;21.87;100.00
24762;BME280;12865;51.934;10.330;2022-08-26T07:35:43;99016.19;;;21.92;100.00
24762;BME280;12865;51.934;10.330;2022-08-26T07:38:29;99031.66;;;21.98;100.00
24762;BME280;12865;51.934;10.330;2022-08-26T07:41:16;99025.38;;;21.98;100.00
24762;BME280;12865;51.934;10.330;2022-08-26T07:44:04;99015.31;;;22.05;100.00
24762;BME280;12865;51.934;10.330;2022-08-26T07:46:49;99024.69;;;22.09;100.00
24762;BME280;12865;51.934;10.330;2022-08-26T07:49:35;99029.72;;;22.05;100.00
24762;BME280;12865;51.934;10.330;2022-08-26T07:52:25;99029.09;;;22.03;100.00
24762;BME280;12865;51.934;10.330;2022-08-26T07:55:11;99030.97;;;22.03;100.00
24762;BME280;12865;51.934;10.330;2022-08-26T07:57:57;99029.94;;;22.04;100.00
24762;BME280;12865;51.934;10.330;2022-08-26T08:00:43;99015.97;;;22.00;100.00
24762;BME280;12865;51.934;10.330;2022-08-26T08:03:29;99028.72;;;22.00;100.00
24762;BME280;12865;51.934;10.330;2022-08-26T08:06:15;99030.16;;;22.02;100.00
24762;BME280;12865;51.934;10.330;2022-08-26T08:09:01;99032.22;;;22.07;100.00
24762;BME280;12865;51.934;10.330;2022-08-26T08:11:47;99035.94;;;22.12;100.00
24762;BME280;12865;51.934;10.330;2022-08-26T08:14:34;99024.72;;;21.95;100.00
24762;BME280;12865;51.934;10.330;2022-08-26T08:17:21;99042.25;;;22.06;100.00
24762;BME280;12865;51.934;10.330;2022-08-26T08:20:07;99029.16;;;21.97;100.00
24762;BME280;12865;51.934;10.330;2022-08-26T08:22:54;99030.78;;;22.04;100.00
24762;BME280;12865;51.934;10.330;2022-08-26T08:25:40;99032.81;;;22.09;100.00
24762;BME280;12865;51.934;10.330;2022-08-26T08:28:25;99026.34;;;22.10;100.00
24762;BME280;12865;51.934;10.330;2022-08-26T08:31:22;99033.63;;;22.16;100.00
24762;BME280;12865;51.934;10.330;2022-08-26T08:34:08;99038.16;;;22.22;100.00
24762;BME280;12865;51.934;10.330;2022-08-26T08:36:55;99030.44;;;22.25;100.00
24762;BME280;12865;51.934;10.330;2022-08-26T08:39:41;99026.44;;;22.28;100.00
24762;BME280;12865;51.934;10.330;2022-08-26T08:48:25;99022.66;;;22.29;100.00
24762;BME280;12865;51.934;10.330;2022-08-26T08:51:26;99016.97;;;22.37;100.00
24762;BME280;12865;51.934;10.330;2022-08-26T08:54:14;99012.16;;;22.39;100.00
24762;BME280;12865;51.934;10.330;2022-08-26T08:57:05;99010.63;;;22.43;100.00
24762;BME280;12865;51.934;10.330;2022-08-26T09:00:04;99002.75;;;22.42;100.00
24762;BME280;12865;51.934;10.330;2022-08-26T09:03:00;99003.56;;;22.42;100.00
24762;BME280;12865;51.934;10.330;2022-08-26T09:05:49;99008.13;;;22.48;100.00
24762;BME280;12865;51.934;10.330;2022-08-26T09:08:36;99002.78;;;22.60;100.00
24762;BME280;12865;51.934;10.330;2022-08-26T09:11:22;99003.72;;;22.72;100.00
24762;BME280;12865;51.934;10.330;2022-08-26T09:14:08;99007.22;;;22.79;100.00
24762;BME280;12865;51.934;10.330;2022-08-26T09:17:13;99004.31;;;22.99;100.00
24762;BME280;12865;51.934;10.330;2022-08-26T09:20:32;99007.13;;;23.10;100.00
24762;BME280;12865;51.934;10.330;2022-08-26T09:23:20;98999.59;;;23.31;100.00
24762;BME280;12865;51.934;10.330;2022-08-26T09:26:22;98996.03;;;23.67;100.00
24762;BME280;12865;51.934;10.330;2022-08-26T09:29:24;98997.75;;;24.09;100.00
24762;BME280;12865;51.934;10.330;2022-08-26T09:32:22;99002.34;;;24.50;100.00
24762;BME280;12865;51.934;10.330;2022-08-26T09:35:44;98992.78;;;24.71;100.00
24762;BME280;12865;51.934;10.330;2022-08-26T09:38:33;98995.00;;;24.74;100.00
24762;BME280;12865;51.934;10.330;2022-08-26T09:41:27;98994.09;;;24.92;100.00
24762;BME280;12865;51.934;10.330;2022-08-26T09:44:17;98990.75;;;25.36;100.00
24762;BME280;12865;51.934;10.330;2022-08-26T09:47:05;98991.13;;;25.68;100.00
24762;BME280;12865;51.934;10.330;2022-08-26T09:53:15;98985.47;;;25.87;95.28
24762;BME280;12865;51.934;10.330;2022-08-26T09:56:17;98976.25;;;26.33;94.91
24762;BME280;12865;51.934;10.330;2022-08-26T09:59:09;98978.41;;;26.47;92.03
24762;BME280;12865;51.934;10.330;2022-08-26T10:02:15;98973.00;;;26.69;92.16
24762;BME280;12865;51.934;10.330;2022-08-26T10:05:06;98970.69;;;26.94;87.99
24762;BME280;12865;51.934;10.330;2022-08-26T10:07:52;98956.69;;;27.13;85.52
24762;BME280;12865;51.934;10.330;2022-08-26T10:10:39;98959.41;;;27.73;84.05
24762;BME280;12865;51.934;10.330;2022-08-26T10:16:21;98937.78;;;28.03;78.82
24762;BME280;12865;51.934;10.330;2022-08-26T10:19:11;98938.47;;;28.16;74.57
24762;BME280;12865;51.934;10.330;2022-08-26T10:22:06;98939.25;;;28.43;75.71
24762;BME280;12865;51.934;10.330;2022-08-26T10:24:58;98926.97;;;28.19;74.05
24762;BME280;12865;51.934;10.330;2022-08-26T10:28:32;98924.88;;;28.68;73.24
24762;BME280;12865;51.934;10.330;2022-08-26T10:31:54;98920.91;;;28.85;71.18
24762;BME280;12865;51.934;10.330;2022-08-26T10:34:12;98904.31;;;29.17;68.89
24762;BME280;12865;51.934;10.330;2022-08-26T10:37:17;98918.25;;;29.01;66.55
24762;BME280;12865;51.934;10.330;2022-08-26T10:43:00;98912.13;;;28.83;68.78
24762;BME280;12865;51.934;10.330;2022-08-26T10:45:54;98907.63;;;28.72;66.36
24762;BME280;12865;51.934;10.330;2022-08-26T10:49:15;98908.69;;;28.66;65.76
24762;BME280;12865;51.934;10.330;2022-08-26T10:51:59;98912.41;;;28.50;65.49
24762;BME280;12865;51.934;10.330;2022-08-26T10:54:58;98899.88;;;29.01;63.22
24762;BME280;12865;51.934;10.330;2022-08-26T11:00:43;98900.25;;;29.30;60.09
24762;BME280;12865;51.934;10.330;2022-08-26T11:04:13;98905.69;;;29.15;60.34
24762;BME280;12865;51.934;10.330;2022-08-26T11:13:04;98897.19;;;28.74;60.46
24762;BME280;12865;51.934;10.330;2022-08-26T11:18:40;98889.88;;;28.43;60.16
24762;BME280;12865;51.934;10.330;2022-08-26T11:22:00;98888.44;;;28.72;59.61
24762;BME280;12865;51.934;10.330;2022-08-26T11:30:38;98872.03;;;28.82;61.17
24762;BME280;12865;51.934;10.330;2022-08-26T11:36:38;98860.78;;;28.79;60.65
24762;BME280;12865;51.934;10.330;2022-08-26T11:39:45;98859.84;;;28.63;59.64
24762;BME280;12865;51.934;10.330;2022-08-26T11:42:39;98846.81;;;28.85;60.41
24762;BME280;12865;51.934;10.330;2022-08-26T11:45:33;98853.47;;;29.00;59.15
24762;BME280;12865;51.934;10.330;2022-08-26T11:48:27;98841.50;;;28.74;60.86
24762;BME280;12865;51.934;10.330;2022-08-26T11:51:22;98841.34;;;28.90;59.91
24762;BME280;12865;51.934;10.330;2022-08-26T11:54:20;98842.16;;;28.91;60.96
24762;BME280;12865;51.934;10.330;2022-08-26T11:57:07;98838.34;;;29.02;58.91
24762;BME280;12865;51.934;10.330;2022-08-26T11:59:57;98831.00;;;29.08;57.91
24762;BME280;12865;51.934;10.330;2022-08-26T12:02:43;98823.63;;;29.34;58.14
24762;BME280;12865;51.934;10.330;2022-08-26T12:05:30;98825.88;;;29.37;56.84
24762;BME280;12865;51.934;10.330;2022-08-26T12:08:24;98820.31;;;29.26;57.65
24762;BME280;12865;51.934;10.330;2022-08-26T12:11:20;98824.44;;;29.24;59.08
24762;BME280;12865;51.934;10.330;2022-08-26T12:14:19;98827.88;;;29.72;57.01
24762;BME280;12865;51.934;10.330;2022-08-26T12:17:17;98828.81;;;29.20;58.41
24762;BME280;12865;51.934;10.330;2022-08-26T12:20:03;98820.28;;;29.11;58.14
24762;BME280;12865;51.934;10.330;2022-08-26T12:22:50;98812.59;;;29.08;58.45
24762;BME280;12865;51.934;10.330;2022-08-26T12:25:36;98817.28;;;29.23;58.05
24762;BME280;12865;51.934;10.330;2022-08-26T12:28:23;98819.75;;;29.14;57.06
24762;BME280;12865;51.934;10.330;2022-08-26T12:31:09;98818.41;;;29.32;55.73
24762;BME280;12865;51.934;10.330;2022-08-26T12:33:56;98822.31;;;29.36;57.02
24762;BME280;12865;51.934;10.330;2022-08-26T12:36:49;98818.09;;;29.23;56.80
24762;BME280;12865;51.934;10.330;2022-08-26T12:39:39;98814.84;;;29.26;57.36
24762;BME280;12865;51.934;10.330;2022-08-26T12:42:39;98813.25;;;29.36;56.40
24762;BME280;12865;51.934;10.330;2022-08-26T12:45:40;98814.53;;;29.08;55.34
24762;BME280;12865;51.934;10.330;2022-08-26T12:48:29;98814.53;;;29.23;55.61
24762;BME280;12865;51.934;10.330;2022-08-26T12:51:23;98812.66;;;29.34;56.04
24762;BME280;12865;51.934;10.330;2022-08-26T12:54:13;98814.00;;;29.31;56.23
24762;BME280;12865;51.934;10.330;2022-08-26T12:57:09;98813.00;;;29.47;57.08
24762;BME280;12865;51.934;10.330;2022-08-26T13:00:33;98814.97;;;29.92;55.13
24762;BME280;12865;51.934;10.330;2022-08-26T13:06:26;98812.44;;;29.60;56.11
24762;BME280;12865;51.934;10.330;2022-08-26T13:12:02;98802.03;;;29.57;55.93
24762;BME280;12865;51.934;10.330;2022-08-26T13:14:48;98801.47;;;29.50;55.78
24762;BME280;12865;51.934;10.330;2022-08-26T13:17:35;98793.13;;;29.30;56.38
24762;BME280;12865;51.934;10.330;2022-08-26T13:20:21;98790.75;;;29.49;56.15
24762;BME280;12865;51.934;10.330;2022-08-26T13:23:07;98793.78;;;29.67;55.83
24762;BME280;12865;51.934;10.330;2022-08-26T13:25:52;98790.78;;;30.04;55.11
24762;BME280;12865;51.934;10.330;2022-08-26T13:28:38;98785.56;;;29.98;54.69
24762;BME280;12865;51.934;10.330;2022-08-26T13:31:26;98778.09;;;29.83;54.99
24762;BME280;12865;51.934;10.330;2022-08-26T13:34:16;98786.91;;;29.95;54.78
24762;BME280;12865;51.934;10.330;2022-08-26T13:37:04;98784.16;;;30.00;53.80
24762;BME280;12865;51.934;10.330;2022-08-26T13:39:49;98786.94;;;30.05;54.15
24762;BME280;12865;51.934;10.330;2022-08-26T13:42:35;98782.22;;;30.16;53.12
24762;BME280;12865;51.934;10.330;2022-08-26T13:45:21;98781.34;;;30.46;52.81
24762;BME280;12865;51.934;10.330;2022-08-26T13:48:07;98773.03;;;30.66;51.70
24762;BME280;12865;51.934;10.330;2022-08-26T13:50:52;98772.75;;;30.68;51.05
24762;BME280;12865;51.934;10.330;2022-08-26T13:53:38;98782.69;;;30.43;52.51
24762;BME280;12865;51.934;10.330;2022-08-26T13:56:25;98777.56;;;30.12;53.14
24762;BME280;12865;51.934;10.330;2022-08-26T13:59:12;98759.66;;;30.14;53.36
24762;BME280;12865;51.934;10.330;2022-08-26T14:01:58;98759.13;;;29.92;53.84
24762;BME280;12865;51.934;10.330;2022-08-26T14:04:47;98762.44;;;30.04;53.89
24762;BME280;12865;51.934;10.330;2022-08-26T14:07:33;98773.66;;;30.28;53.88
24762;BME280;12865;51.934;10.330;2022-08-26T14:10:19;98772.03;;;30.17;54.00
24762;BME280;12865;51.934;10.330;2022-08-26T14:13:05;98777.84;;;29.95;53.37
24762;BME280;12865;51.934;10.330;2022-08-26T14:15:51;98774.28;;;29.94;54.59
24762;BME280;12865;51.934;10.330;2022-08-26T14:18:38;98770.44;;;30.05;53.21
24762;BME280;12865;51.934;10.330;2022-08-26T14:21:30;98768.25;;;29.92;53.34
24762;BME280;12865;51.934;10.330;2022-08-26T14:24:16;98760.78;;;29.73;54.87
24762;BME280;12865;51.934;10.330;2022-08-26T14:27:02;98753.31;;;30.24;53.95
24762;BME280;12865;51.934;10.330;2022-08-26T14:29:47;98756.03;;;30.39;54.41
24762;BME280;12865;51.934;10.330;2022-08-26T14:32:33;98749.13;;;30.47;53.32
24762;BME280;12865;51.934;10.330;2022-08-26T14:35:25;98758.22;;;30.42;52.58
24762;BME280;12865;51.934;10.330;2022-08-26T14:38:11;98747.00;;;30.33;53.57
24762;BME280;12865;51.934;10.330;2022-08-26T14:40:58;98747.81;;;30.34;51.96
24762;BME280;12865;51.934;10.330;2022-08-26T14:43:50;98755.84;;;30.10;50.98
24762;BME280;12865;51.934;10.330;2022-08-26T14:46:45;98763.25;;;29.79;53.06
24762;BME280;12865;51.934;10.330;2022-08-26T14:49:31;98781.66;;;29.58;54.27
24762;BME280;12865;51.934;10.330;2022-08-26T14:52:17;98776.44;;;29.52;54.22
24762;BME280;12865;51.934;10.330;2022-08-26T14:55:03;98779.41;;;29.30;54.98
24762;BME280;12865;51.934;10.330;2022-08-26T14:57:48;98785.16;;;29.13;55.57
24762;BME280;12865;51.934;10.330;2022-08-26T15:00:35;98776.81;;;28.83;56.29
24762;BME280;12865;51.934;10.330;2022-08-26T15:03:21;98780.13;;;28.90;56.65
24762;BME280;12865;51.934;10.330;2022-08-26T15:06:07;98768.88;;;28.86;57.44
24762;BME280;12865;51.934;10.330;2022-08-26T15:08:53;98762.72;;;28.69;58.32
24762;BME280;12865;51.934;10.330;2022-08-26T15:11:39;98765.06;;;28.40;59.77
24762;BME280;12865;51.934;10.330;2022-08-26T15:14:25;98760.88;;;28.23;60.16
24762;BME280;12865;51.934;10.330;2022-08-26T15:17:11;98759.22;;;28.22;61.55
24762;BME280;12865;51.934;10.330;2022-08-26T15:19:57;98759.69;;;28.13;62.40
24762;BME280;12865;51.934;10.330;2022-08-26T15:22:43;98769.81;;;28.13;62.65